sensor_id;sensor_type;location;lat;lon;timestamp;temperature;humidity
18613;DHT22;9436;52.152;21.032;2022-08-21T00:02:27;23.50;99.90
18613;DHT22;9436;52.152;21.032;2022-08-21T00:04:54;23.40;99.90
18613;DHT22;9436;52.152;21.032;2022-08-21T00:07:21;23.40;99.90
18613;DHT22;9436;52.152;21.032;2022-08-21T00:09:48;23.20;99.90
18613;DHT22;9436;52.152;21.032;2022-08-21T00:12:15;23.20;99.90
18613;DHT22;9436;52.152;21.032;2022-08-21T00:14:43;23.10;99.90
18613;DHT22;9436;52.152;21.032;2022-08-21T00:17:10;23.10;99.90
18613;DHT22;9436;52.152;21.032;2022-08-21T00:19:37;23.10;99.90
18613;DHT22;9436;52.152;21.032;2022-08-21T00:22:04;23.10;99.90
18613;DHT22;9436;52.152;21.032;2022-08-21T00:24:31;23.10;99.90
18613;DHT22;9436;52.152;21.032;2022-08-21T00:26:58;23.00;99.90
18613;DHT22;9436;52.152;21.032;2022-08-21T00:29:25;23.00;99.90
18613;DHT22;9436;52.152;21.032;2022-08-21T00:31:53;22.90;99.90
18613;DHT22;9436;52.152;21.032;2022-08-21T00:34:20;22.90;99.90
18613;DHT22;9436;52.152;21.032;2022-08-21T00:36:47;22.80;99.90
18613;DHT22;9436;52.152;21.032;2022-08-21T00:39:14;22.80;99.90
18613;DHT22;9436;52.152;21.032;2022-08-21T00:41:42;22.70;99.90
18613;DHT22;9436;52.152;21.032;2022-08-21T00:44:11;22.70;99.90
18613;DHT22;9436;52.152;21.032;2022-08-21T00:46:39;22.70;99.90
18613;DHT22;9436;52.152;21.032;2022-08-21T00:49:09;22.70;99.90
18613;DHT22;9436;52.152;21.032;2022-08-21T00:51:40;22.60;99.90
18613;DHT22;9436;52.152;21.032;2022-08-21T00:54:10;22.60;99.90
18613;DHT22;9436;52.152;21.032;2022-08-21T00:56:37;22.60;99.90
18613;DHT22;9436;52.152;21.032;2022-08-21T00:59:05;22.60;99.90
18613;DHT22;9436;52.152;21.032;2022-08-21T01:01:33;22.50;99.90
18613;DHT22;9436;52.152;21.032;2022-08-21T01:04:00;22.50;99.90
18613;DHT22;9436;52.152;21.032;2022-08-21T01:06:29;22.50;99.90
18613;DHT22;9436;52.152;21.032;2022-08-21T01:08:56;22.40;99.90
18613;DHT22;9436;52.152;21.032;2022-08-21T01:11:23;22.40;99.90
18613;DHT22;9436;52.152;21.032;2022-08-21T01:13:50;22.40;99.90
18613;DHT22;9436;52.152;21.032;2022-08-21T01:16:19;22.40;99.90
18613;DHT22;9436;52.152;21.032;2022-08-21T01:18:47;22.30;99.90
18613;DHT22;9436;52.152;21.032;2022-08-21T01:21:18;22.30;99.90
18613;DHT22;9436;52.152;21.032;2022-08-21T01:23:47;22.20;99.90
18613;DHT22;9436;52.152;21.032;2022-08-21T01:26:17;22.20;99.90
18613;DHT22;9436;52.152;21.032;2022-08-21T01:28:49;22.20;99.90
18613;DHT22;9436;52.152;21.032;2022-08-21T01:31:19;22.10;99.90
18613;DHT22;9436;52.152;21.032;2022-08-21T01:33:48;22.10;99.90
18613;DHT22;9436;52.152;21.032;2022-08-21T01:36:17;22.10;99.90
18613;DHT22;9436;52.152;21.032;2022-08-21T01:38:44;22.00;99.90
18613;DHT22;9436;52.152;21.032;2022-08-21T01:41:11;22.10;99.90
18613;DHT22;9436;52.152;21.032;2022-08-21T01:43:38;22.00;99.90
18613;DHT22;9436;52.152;21.032;2022-08-21T01:46:05;22.00;99.90
18613;DHT22;9436;52.152;21.032;2022-08-21T01:48:32;22.00;99.90
18613;DHT22;9436;52.152;21.032;2022-08-21T01:50:59;21.90;99.90
18613;DHT22;9436;52.152;21.032;2022-08-21T01:53:28;21.90;99.90
18613;DHT22;9436;52.152;21.032;2022-08-21T01:55:55;21.90;99.90
18613;DHT22;9436;52.152;21.032;2022-08-21T01:58:21;21.90;99.90
18613;DHT22;9436;52.152;21.032;2022-08-21T02:00:48;21.90;99.90
18613;DHT22;9436;52.152;21.032;2022-08-21T02:03:15;21.90;99.90
18613;DHT22;9436;52.152;21.032;2022-08-21T02:05:42;21.80;99.90
18613;DHT22;9436;52.152;21.032;2022-08-21T02:08:09;21.80;99.90
18613;DHT22;9436;52.152;21.032;2022-08-21T02:10:38;21.80;99.90
18613;DHT22;9436;52.152;21.032;2022-08-21T02:13:07;21.80;99.90
18613;DHT22;9436;52.152;21.032;2022-08-21T02:15:34;21.70;99.90
18613;DHT22;9436;52.152;21.032;2022-08-21T02:18:04;21.70;99.90
18613;DHT22;9436;52.152;21.032;2022-08-21T02:20:34;21.70;99.90
18613;DHT22;9436;52.152;21.032;2022-08-21T02:23:02;21.60;99.90
18613;DHT22;9436;52.152;21.032;2022-08-21T02:25:29;21.60;99.90
18613;DHT22;9436;52.152;21.032;2022-08-21T02:27:59;21.60;99.90
18613;DHT22;9436;52.152;21.032;2022-08-21T02:30:32;21.60;99.90
18613;DHT22;9436;52.152;21.032;2022-08-21T02:33:00;21.50;99.90
18613;DHT22;9436;52.152;21.032;2022-08-21T02:35:27;21.50;99.90
18613;DHT22;9436;52.152;21.032;2022-08-21T02:37:56;21.50;99.90
18613;DHT22;9436;52.152;21.032;2022-08-21T02:40:26;21.50;99.90
18613;DHT22;9436;52.152;21.032;2022-08-21T02:42:53;21.50;99.90
18613;DHT22;9436;52.152;21.032;2022-08-21T02:45:22;21.40;99.90
18613;DHT22;9436;52.152;21.032;2022-08-21T02:47:50;21.40;99.90
18613;DHT22;9436;52.152;21.032;2022-08-21T02:50:19;21.30;99.90
18613;DHT22;9436;52.152;21.032;2022-08-21T02:52:47;21.30;99.90
18613;DHT22;9436;52.152;21.032;2022-08-21T02:55:15;21.30;99.90
18613;DHT22;9436;52.152;21.032;2022-08-21T02:57:41;21.20;99.90
18613;DHT22;9436;52.152;21.032;2022-08-21T03:00:09;21.30;99.90
18613;DHT22;9436;52.152;21.032;2022-08-21T03:02:38;21.30;99.90
18613;DHT22;9436;52.152;21.032;2022-08-21T03:05:07;21.30;99.90
18613;DHT22;9436;52.152;21.032;2022-08-21T03:07:35;21.20;99.90
18613;DHT22;9436;52.152;21.032;2022-08-21T03:10:03;21.20;99.90
18613;DHT22;9436;52.152;21.032;2022-08-21T03:12:30;21.20;99.90
18613;DHT22;9436;52.152;21.032;2022-08-21T03:14:58;21.20;99.90
18613;DHT22;9436;52.152;21.032;2022-08-21T03:17:25;21.20;99.90
18613;DHT22;9436;52.152;21.032;2022-08-21T03:19:54;21.20;99.90
18613;DHT22;9436;52.152;21.032;2022-08-21T03:22:22;21.20;99.90
18613;DHT22;9436;52.152;21.032;2022-08-21T03:24:48;21.20;99.90
18613;DHT22;9436;52.152;21.032;2022-08-21T03:27:16;21.10;99.90
18613;DHT22;9436;52.152;21.032;2022-08-21T03:29:43;21.20;99.90
18613;DHT22;9436;52.152;21.032;2022-08-21T03:32:10;21.20;99.90
18613;DHT22;9436;52.152;21.032;2022-08-21T03:34:37;21.10;99.90
18613;DHT22;9436;52.152;21.032;2022-08-21T03:37:07;21.10;99.90
18613;DHT22;9436;52.152;21.032;2022-08-21T03:39:35;21.10;99.90
18613;DHT22;9436;52.152;21.032;2022-08-21T03:42:02;21.10;99.90
18613;DHT22;9436;52.152;21.032;2022-08-21T03:44:30;21.10;99.90
18613;DHT22;9436;52.152;21.032;2022-08-21T03:46:58;21.10;99.90
18613;DHT22;9436;52.152;21.032;2022-08-21T03:49:25;21.10;99.90
18613;DHT22;9436;52.152;21.032;2022-08-21T03:51:52;21.10;99.90
18613;DHT22;9436;52.152;21.032;2022-08-21T03:54:20;21.10;99.90
18613;DHT22;9436;52.152;21.032;2022-08-21T03:56:47;21.10;99.90
18613;DHT22;9436;52.152;21.032;2022-08-21T03:59:15;21.00;99.90
18613;DHT22;9436;52.152;21.032;2022-08-21T04:01:51;21.00;99.90
18613;DHT22;9436;52.152;21.032;2022-08-21T04:04:18;21.00;99.90
18613;DHT22;9436;52.152;21.032;2022-08-21T04:06:45;21.00;99.90
18613;DHT22;9436;52.152;21.032;2022-08-21T04:09:12;21.00;99.90
18613;DHT22;9436;52.152;21.032;2022-08-21T04:11:40;21.00;99.90
18613;DHT22;9436;52.152;21.032;2022-08-21T04:14:07;21.00;99.90
18613;DHT22;9436;52.152;21.032;2022-08-21T04:16:34;21.00;99.90
18613;DHT22;9436;52.152;21.032;2022-08-21T04:19:01;20.90;99.90
18613;DHT22;9436;52.152;21.032;2022-08-21T04:21:29;21.00;99.90
18613;DHT22;9436;52.152;21.032;2022-08-21T04:23:56;21.00;99.90
18613;DHT22;9436;52.152;21.032;2022-08-21T04:26:23;21.10;99.90
18613;DHT22;9436;52.152;21.032;2022-08-21T04:28:52;21.10;99.90
18613;DHT22;9436;52.152;21.032;2022-08-21T04:31:21;21.20;99.90
18613;DHT22;9436;52.152;21.032;2022-08-21T04:33:47;21.20;99.90
18613;DHT22;9436;52.152;21.032;2022-08-21T04:36:15;21.10;99.90
18613;DHT22;9436;52.152;21.032;2022-08-21T04:38:41;21.10;99.90
18613;DHT22;9436;52.152;21.032;2022-08-21T04:41:08;21.10;99.90
18613;DHT22;9436;52.152;21.032;2022-08-21T04:43:35;21.00;99.90
18613;DHT22;9436;52.152;21.032;2022-08-21T04:46:04;21.00;99.90
18613;DHT22;9436;52.152;21.032;2022-08-21T04:48:32;21.00;99.90
18613;DHT22;9436;52.152;21.032;2022-08-21T04:51:03;21.00;99.90
18613;DHT22;9436;52.152;21.032;2022-08-21T04:53:35;21.00;99.90
18613;DHT22;9436;52.152;21.032;2022-08-21T04:56:07;21.10;99.90
18613;DHT22;9436;52.152;21.032;2022-08-21T04:58:36;21.10;99.90
18613;DHT22;9436;52.152;21.032;2022-08-21T05:01:09;21.10;99.90
18613;DHT22;9436;52.152;21.032;2022-08-21T05:03:38;21.10;99.90
18613;DHT22;9436;52.152;21.032;2022-08-21T05:06:08;21.20;99.90
18613;DHT22;9436;52.152;21.032;2022-08-21T05:08:36;21.20;99.90
18613;DHT22;9436;52.152;21.032;2022-08-21T05:11:04;21.30;99.90
18613;DHT22;9436;52.152;21.032;2022-08-21T05:13:32;21.30;99.90
18613;DHT22;9436;52.152;21.032;2022-08-21T05:15:59;21.40;99.90
18613;DHT22;9436;52.152;21.032;2022-08-21T05:18:27;21.40;99.90
18613;DHT22;9436;52.152;21.032;2022-08-21T05:20:54;21.50;99.90
18613;DHT22;9436;52.152;21.032;2022-08-21T05:23:22;21.60;99.90
18613;DHT22;9436;52.152;21.032;2022-08-21T05:25:49;21.60;99.90
18613;DHT22;9436;52.152;21.032;2022-08-21T05:28:15;21.70;99.90
18613;DHT22;9436;52.152;21.032;2022-08-21T05:30:43;21.80;99.90
18613;DHT22;9436;52.152;21.032;2022-08-21T05:33:10;21.80;99.90
18613;DHT22;9436;52.152;21.032;2022-08-21T05:35:39;21.80;99.90
18613;DHT22;9436;52.152;21.032;2022-08-21T05:38:06;21.90;99.90
18613;DHT22;9436;52.152;21.032;2022-08-21T05:40:33;22.00;99.90
18613;DHT22;9436;52.152;21.032;2022-08-21T05:43:00;22.10;99.90
18613;DHT22;9436;52.152;21.032;2022-08-21T05:45:29;22.20;99.90
18613;DHT22;9436;52.152;21.032;2022-08-21T05:47:56;22.30;99.90
18613;DHT22;9436;52.152;21.032;2022-08-21T05:50:23;22.30;99.90
18613;DHT22;9436;52.152;21.032;2022-08-21T05:52:52;22.30;99.90
18613;DHT22;9436;52.152;21.032;2022-08-21T05:55:19;22.40;99.90
18613;DHT22;9436;52.152;21.032;2022-08-21T05:57:46;22.30;99.90
18613;DHT22;9436;52.152;21.032;2022-08-21T06:00:14;22.50;99.90
18613;DHT22;9436;52.152;21.032;2022-08-21T06:02:42;22.60;99.90
18613;DHT22;9436;52.152;21.032;2022-08-21T06:05:09;22.70;99.90
18613;DHT22;9436;52.152;21.032;2022-08-21T06:07:36;22.80;99.90
18613;DHT22;9436;52.152;21.032;2022-08-21T06:10:06;22.70;99.90
18613;DHT22;9436;52.152;21.032;2022-08-21T06:12:33;22.70;99.90
18613;DHT22;9436;52.152;21.032;2022-08-21T06:15:00;22.80;99.90
18613;DHT22;9436;52.152;21.032;2022-08-21T06:17:26;22.90;99.90
18613;DHT22;9436;52.152;21.032;2022-08-21T06:19:54;23.00;99.90
18613;DHT22;9436;52.152;21.032;2022-08-21T06:22:21;23.00;99.90
18613;DHT22;9436;52.152;21.032;2022-08-21T06:24:48;23.00;99.90
18613;DHT22;9436;52.152;21.032;2022-08-21T06:27:16;23.00;99.90
18613;DHT22;9436;52.152;21.032;2022-08-21T06:29:44;22.90;99.90
18613;DHT22;9436;52.152;21.032;2022-08-21T06:32:11;23.00;99.90
18613;DHT22;9436;52.152;21.032;2022-08-21T06:34:40;23.20;99.90
18613;DHT22;9436;52.152;21.032;2022-08-21T06:37:08;23.30;99.90
18613;DHT22;9436;52.152;21.032;2022-08-21T06:39:35;23.40;99.90
18613;DHT22;9436;52.152;21.032;2022-08-21T06:42:02;23.40;99.90
18613;DHT22;9436;52.152;21.032;2022-08-21T06:44:31;23.50;99.90
18613;DHT22;9436;52.152;21.032;2022-08-21T06:46:58;23.50;99.90
18613;DHT22;9436;52.152;21.032;2022-08-21T06:49:24;23.60;99.90
18613;DHT22;9436;52.152;21.032;2022-08-21T06:51:51;23.60;99.90
18613;DHT22;9436;52.152;21.032;2022-08-21T06:54:18;23.60;99.90
18613;DHT22;9436;52.152;21.032;2022-08-21T06:56:45;23.50;99.90
18613;DHT22;9436;52.152;21.032;2022-08-21T06:59:12;23.70;99.90
18613;DHT22;9436;52.152;21.032;2022-08-21T07:01:41;23.80;99.90
18613;DHT22;9436;52.152;21.032;2022-08-21T07:04:08;23.80;99.90
18613;DHT22;9436;52.152;21.032;2022-08-21T07:06:35;23.80;99.90
18613;DHT22;9436;52.152;21.032;2022-08-21T07:09:02;23.90;99.90
18613;DHT22;9436;52.152;21.032;2022-08-21T07:11:29;24.00;99.90
18613;DHT22;9436;52.152;21.032;2022-08-21T07:13:56;24.20;99.90
18613;DHT22;9436;52.152;21.032;2022-08-21T07:16:24;24.30;99.90
18613;DHT22;9436;52.152;21.032;2022-08-21T07:18:52;24.40;99.90
18613;DHT22;9436;52.152;21.032;2022-08-21T07:21:19;24.50;99.90
18613;DHT22;9436;52.152;21.032;2022-08-21T07:23:49;24.50;99.90
18613;DHT22;9436;52.152;21.032;2022-08-21T07:26:18;24.60;99.90
18613;DHT22;9436;52.152;21.032;2022-08-21T07:28:46;24.60;99.90
18613;DHT22;9436;52.152;21.032;2022-08-21T07:31:14;24.60;99.90
18613;DHT22;9436;52.152;21.032;2022-08-21T07:33:42;24.60;99.90
18613;DHT22;9436;52.152;21.032;2022-08-21T07:36:11;24.60;99.90
18613;DHT22;9436;52.152;21.032;2022-08-21T07:38:38;24.50;99.90
18613;DHT22;9436;52.152;21.032;2022-08-21T07:41:11;24.60;99.90
18613;DHT22;9436;52.152;21.032;2022-08-21T07:43:39;24.60;99.90
18613;DHT22;9436;52.152;21.032;2022-08-21T07:46:06;24.70;99.90
18613;DHT22;9436;52.152;21.032;2022-08-21T07:48:33;24.70;99.90
18613;DHT22;9436;52.152;21.032;2022-08-21T07:51:04;24.70;99.90
18613;DHT22;9436;52.152;21.032;2022-08-21T07:53:33;24.80;99.90
18613;DHT22;9436;52.152;21.032;2022-08-21T07:56:01;24.80;99.90
18613;DHT22;9436;52.152;21.032;2022-08-21T07:58:29;24.80;99.90
18613;DHT22;9436;52.152;21.032;2022-08-21T08:00:55;24.90;99.90
18613;DHT22;9436;52.152;21.032;2022-08-21T08:03:22;25.00;99.90
18613;DHT22;9436;52.152;21.032;2022-08-21T08:05:49;25.10;99.90
18613;DHT22;9436;52.152;21.032;2022-08-21T08:08:16;25.20;99.90
18613;DHT22;9436;52.152;21.032;2022-08-21T08:10:45;25.20;99.90
18613;DHT22;9436;52.152;21.032;2022-08-21T08:13:12;25.40;99.90
18613;DHT22;9436;52.152;21.032;2022-08-21T08:15:39;25.50;99.90
18613;DHT22;9436;52.152;21.032;2022-08-21T08:18:06;25.50;99.90
18613;DHT22;9436;52.152;21.032;2022-08-21T08:20:33;25.60;99.90
18613;DHT22;9436;52.152;21.032;2022-08-21T08:23:00;25.70;99.90
18613;DHT22;9436;52.152;21.032;2022-08-21T08:25:27;25.70;99.90
18613;DHT22;9436;52.152;21.032;2022-08-21T08:27:55;25.80;99.90
18613;DHT22;9436;52.152;21.032;2022-08-21T08:30:22;25.80;99.90
18613;DHT22;9436;52.152;21.032;2022-08-21T08:32:49;25.90;99.90
18613;DHT22;9436;52.152;21.032;2022-08-21T08:35:17;25.80;99.90
18613;DHT22;9436;52.152;21.032;2022-08-21T08:37:44;25.80;99.90
18613;DHT22;9436;52.152;21.032;2022-08-21T08:40:17;25.90;99.90
18613;DHT22;9436;52.152;21.032;2022-08-21T08:42:46;26.00;99.90
18613;DHT22;9436;52.152;21.032;2022-08-21T08:45:19;26.00;99.90
18613;DHT22;9436;52.152;21.032;2022-08-21T08:47:51;26.10;99.90
18613;DHT22;9436;52.152;21.032;2022-08-21T08:50:26;26.10;99.90
18613;DHT22;9436;52.152;21.032;2022-08-21T08:52:59;26.20;99.90
18613;DHT22;9436;52.152;21.032;2022-08-21T08:55:32;25.90;99.90
18613;DHT22;9436;52.152;21.032;2022-08-21T08:58:00;26.00;99.90
18613;DHT22;9436;52.152;21.032;2022-08-21T09:00:31;26.10;99.90
18613;DHT22;9436;52.152;21.032;2022-08-21T09:03:00;26.30;99.90
18613;DHT22;9436;52.152;21.032;2022-08-21T09:05:29;26.40;99.90
18613;DHT22;9436;52.152;21.032;2022-08-21T09:08:15;26.50;99.90
18613;DHT22;9436;52.152;21.032;2022-08-21T09:10:50;26.60;99.90
18613;DHT22;9436;52.152;21.032;2022-08-21T09:13:26;26.80;99.90
18613;DHT22;9436;52.152;21.032;2022-08-21T09:16:05;27.00;99.90
18613;DHT22;9436;52.152;21.032;2022-08-21T09:18:41;26.90;99.90
18613;DHT22;9436;52.152;21.032;2022-08-21T09:21:18;27.00;99.90
18613;DHT22;9436;52.152;21.032;2022-08-21T09:23:53;27.00;99.90
18613;DHT22;9436;52.152;21.032;2022-08-21T09:26:24;27.30;99.90
18613;DHT22;9436;52.152;21.032;2022-08-21T09:28:54;27.40;99.90
18613;DHT22;9436;52.152;21.032;2022-08-21T09:31:25;27.00;99.90
18613;DHT22;9436;52.152;21.032;2022-08-21T09:33:58;26.80;99.90
18613;DHT22;9436;52.152;21.032;2022-08-21T09:36:31;27.00;99.90
18613;DHT22;9436;52.152;21.032;2022-08-21T09:38:59;27.00;99.90
18613;DHT22;9436;52.152;21.032;2022-08-21T09:41:28;27.00;99.90
18613;DHT22;9436;52.152;21.032;2022-08-21T09:43:56;27.00;99.90
18613;DHT22;9436;52.152;21.032;2022-08-21T09:46:26;27.00;99.90
18613;DHT22;9436;52.152;21.032;2022-08-21T09:48:55;27.20;99.90
18613;DHT22;9436;52.152;21.032;2022-08-21T09:51:25;27.20;99.90
18613;DHT22;9436;52.152;21.032;2022-08-21T09:53:56;27.20;99.90
18613;DHT22;9436;52.152;21.032;2022-08-21T09:56:28;27.10;99.90
18613;DHT22;9436;52.152;21.032;2022-08-21T09:59:17;27.10;99.90
18613;DHT22;9436;52.152;21.032;2022-08-21T10:01:48;27.20;99.90
18613;DHT22;9436;52.152;21.032;2022-08-21T10:04:21;27.10;99.90
18613;DHT22;9436;52.152;21.032;2022-08-21T10:06:48;27.10;99.90
18613;DHT22;9436;52.152;21.032;2022-08-21T10:09:17;27.10;99.90
18613;DHT22;9436;52.152;21.032;2022-08-21T10:11:53;27.00;99.90
18613;DHT22;9436;52.152;21.032;2022-08-21T10:14:37;27.00;99.90
18613;DHT22;9436;52.152;21.032;2022-08-21T10:17:17;27.10;99.90
18613;DHT22;9436;52.152;21.032;2022-08-21T10:19:51;27.20;99.90
18613;DHT22;9436;52.152;21.032;2022-08-21T10:22:31;27.10;99.90
18613;DHT22;9436;52.152;21.032;2022-08-21T10:25:06;27.00;99.90
18613;DHT22;9436;52.152;21.032;2022-08-21T10:27:39;26.90;99.90
18613;DHT22;9436;52.152;21.032;2022-08-21T10:30:11;26.90;99.90
18613;DHT22;9436;52.152;21.032;2022-08-21T10:32:54;27.00;99.90
18613;DHT22;9436;52.152;21.032;2022-08-21T10:35:27;27.00;99.90
18613;DHT22;9436;52.152;21.032;2022-08-21T10:38:10;27.10;99.90
18613;DHT22;9436;52.152;21.032;2022-08-21T10:40:45;27.10;99.90
18613;DHT22;9436;52.152;21.032;2022-08-21T10:43:20;27.10;99.90
18613;DHT22;9436;52.152;21.032;2022-08-21T10:45:58;27.10;99.90
18613;DHT22;9436;52.152;21.032;2022-08-21T10:48:36;27.20;99.90
18613;DHT22;9436;52.152;21.032;2022-08-21T10:51:06;27.30;99.90
18613;DHT22;9436;52.152;21.032;2022-08-21T10:53:45;27.30;99.90
18613;DHT22;9436;52.152;21.032;2022-08-21T10:56:17;27.30;99.90
18613;DHT22;9436;52.152;21.032;2022-08-21T10:58:50;27.40;99.90
18613;DHT22;9436;52.152;21.032;2022-08-21T11:01:24;27.60;99.90
18613;DHT22;9436;52.152;21.032;2022-08-21T11:04:09;27.70;99.90
18613;DHT22;9436;52.152;21.032;2022-08-21T11:06:42;27.70;99.90
18613;DHT22;9436;52.152;21.032;2022-08-21T11:09:13;27.70;99.90
18613;DHT22;9436;52.152;21.032;2022-08-21T11:11:45;27.60;99.90
18613;DHT22;9436;52.152;21.032;2022-08-21T11:14:21;27.50;99.90
18613;DHT22;9436;52.152;21.032;2022-08-21T11:16:57;27.70;99.90
18613;DHT22;9436;52.152;21.032;2022-08-21T11:19:31;27.70;99.90
18613;DHT22;9436;52.152;21.032;2022-08-21T11:22:06;27.80;99.90
18613;DHT22;9436;52.152;21.032;2022-08-21T11:24:40;27.70;99.90
18613;DHT22;9436;52.152;21.032;2022-08-21T11:27:15;27.70;99.90
18613;DHT22;9436;52.152;21.032;2022-08-21T11:29:48;27.80;99.90
18613;DHT22;9436;52.152;21.032;2022-08-21T11:35:44;27.70;99.90
18613;DHT22;9436;52.152;21.032;2022-08-21T11:38:22;27.60;99.90
18613;DHT22;9436;52.152;21.032;2022-08-21T11:41:03;27.60;99.90
18613;DHT22;9436;52.152;21.032;2022-08-21T11:43:38;27.80;99.90
18613;DHT22;9436;52.152;21.032;2022-08-21T11:46:20;28.00;99.90
18613;DHT22;9436;52.152;21.032;2022-08-21T11:49:02;28.10;99.90
18613;DHT22;9436;52.152;21.032;2022-08-21T11:51:38;28.00;99.90
18613;DHT22;9436;52.152;21.032;2022-08-21T11:54:12;28.00;99.90
18613;DHT22;9436;52.152;21.032;2022-08-21T11:56:46;28.00;99.90
18613;DHT22;9436;52.152;21.032;2022-08-21T11:59:19;28.00;99.90
18613;DHT22;9436;52.152;21.032;2022-08-21T12:01:49;28.10;99.90
18613;DHT22;9436;52.152;21.032;2022-08-21T12:04:22;28.10;99.90
18613;DHT22;9436;52.152;21.032;2022-08-21T12:06:53;28.10;99.90
18613;DHT22;9436;52.152;21.032;2022-08-21T12:09:31;28.20;99.90
18613;DHT22;9436;52.152;21.032;2022-08-21T12:12:03;28.00;99.90
18613;DHT22;9436;52.152;21.032;2022-08-21T12:14:37;27.80;99.90
18613;DHT22;9436;52.152;21.032;2022-08-21T12:17:06;27.70;99.90
18613;DHT22;9436;52.152;21.032;2022-08-21T12:19:34;27.70;99.90
18613;DHT22;9436;52.152;21.032;2022-08-21T12:22:10;27.80;99.90
18613;DHT22;9436;52.152;21.032;2022-08-21T12:24:39;28.00;99.90
18613;DHT22;9436;52.152;21.032;2022-08-21T12:27:20;28.10;99.90
18613;DHT22;9436;52.152;21.032;2022-08-21T12:29:53;28.30;99.90
18613;DHT22;9436;52.152;21.032;2022-08-21T12:32:25;28.50;99.90
18613;DHT22;9436;52.152;21.032;2022-08-21T12:34:55;28.70;99.90
18613;DHT22;9436;52.152;21.032;2022-08-21T12:37:40;28.90;99.90
18613;DHT22;9436;52.152;21.032;2022-08-21T12:40:14;29.10;99.90
18613;DHT22;9436;52.152;21.032;2022-08-21T12:42:47;29.40;99.90
18613;DHT22;9436;52.152;21.032;2022-08-21T12:45:19;29.60;99.90
18613;DHT22;9436;52.152;21.032;2022-08-21T12:47:48;29.60;99.90
18613;DHT22;9436;52.152;21.032;2022-08-21T12:50:20;29.70;99.90
18613;DHT22;9436;52.152;21.032;2022-08-21T12:52:55;29.60;99.90
18613;DHT22;9436;52.152;21.032;2022-08-21T12:55:27;29.40;99.90
18613;DHT22;9436;52.152;21.032;2022-08-21T12:57:54;29.00;99.90
18613;DHT22;9436;52.152;21.032;2022-08-21T13:00:23;28.70;99.90
18613;DHT22;9436;52.152;21.032;2022-08-21T13:02:52;28.60;99.90
18613;DHT22;9436;52.152;21.032;2022-08-21T13:05:27;28.60;99.90
18613;DHT22;9436;52.152;21.032;2022-08-21T13:07:55;28.40;99.90
18613;DHT22;9436;52.152;21.032;2022-08-21T13:10:26;28.50;99.90
18613;DHT22;9436;52.152;21.032;2022-08-21T13:12:54;28.40;99.90
18613;DHT22;9436;52.152;21.032;2022-08-21T13:15:26;28.40;99.90
18613;DHT22;9436;52.152;21.032;2022-08-21T13:17:53;28.50;99.90
18613;DHT22;9436;52.152;21.032;2022-08-21T13:20:23;28.50;99.90
18613;DHT22;9436;52.152;21.032;2022-08-21T13:22:51;28.50;99.90
18613;DHT22;9436;52.152;21.032;2022-08-21T13:25:24;28.50;99.90
18613;DHT22;9436;52.152;21.032;2022-08-21T13:27:59;28.60;99.90
18613;DHT22;9436;52.152;21.032;2022-08-21T13:30:26;28.70;99.90
18613;DHT22;9436;52.152;21.032;2022-08-21T13:32:58;28.70;99.90
18613;DHT22;9436;52.152;21.032;2022-08-21T13:35:28;28.70;99.90
18613;DHT22;9436;52.152;21.032;2022-08-21T13:37:56;28.70;99.90
18613;DHT22;9436;52.152;21.032;2022-08-21T13:40:27;28.50;99.90
18613;DHT22;9436;52.152;21.032;2022-08-21T13:42:55;28.30;99.90
18613;DHT22;9436;52.152;21.032;2022-08-21T13:45:25;28.30;99.90
18613;DHT22;9436;52.152;21.032;2022-08-21T13:47:53;28.50;99.90
18613;DHT22;9436;52.152;21.032;2022-08-21T13:50:22;28.50;99.90
18613;DHT22;9436;52.152;21.032;2022-08-21T13:52:57;28.50;99.90
18613;DHT22;9436;52.152;21.032;2022-08-21T13:55:35;28.30;99.90
18613;DHT22;9436;52.152;21.032;2022-08-21T13:58:04;28.30;99.90
18613;DHT22;9436;52.152;21.032;2022-08-21T14:00:33;28.20;99.90
18613;DHT22;9436;52.152;21.032;2022-08-21T14:03:06;28.10;99.90
18613;DHT22;9436;52.152;21.032;2022-08-21T14:05:35;28.00;99.90
18613;DHT22;9436;52.152;21.032;2022-08-21T14:08:07;28.00;99.90
18613;DHT22;9436;52.152;21.032;2022-08-21T14:10:42;28.00;99.90
18613;DHT22;9436;52.152;21.032;2022-08-21T14:13:26;28.00;99.90
18613;DHT22;9436;52.152;21.032;2022-08-21T14:15:57;27.90;99.90
18613;DHT22;9436;52.152;21.032;2022-08-21T14:18:25;27.90;99.90
18613;DHT22;9436;52.152;21.032;2022-08-21T14:20:57;27.90;99.90
18613;DHT22;9436;52.152;21.032;2022-08-21T14:23:30;27.70;99.90
18613;DHT22;9436;52.152;21.032;2022-08-21T14:26:02;27.70;99.90
18613;DHT22;9436;52.152;21.032;2022-08-21T14:28:31;27.70;99.90
18613;DHT22;9436;52.152;21.032;2022-08-21T14:30:59;27.80;99.90
18613;DHT22;9436;52.152;21.032;2022-08-21T14:33:36;27.90;99.90
18613;DHT22;9436;52.152;21.032;2022-08-21T14:36:03;28.00;99.90
18613;DHT22;9436;52.152;21.032;2022-08-21T14:38:31;28.00;99.90
18613;DHT22;9436;52.152;21.032;2022-08-21T14:41:10;28.10;99.90
18613;DHT22;9436;52.152;21.032;2022-08-21T14:43:41;27.90;99.90
18613;DHT22;9436;52.152;21.032;2022-08-21T14:46:08;27.80;99.90
18613;DHT22;9436;52.152;21.032;2022-08-21T14:48:35;27.80;99.90
18613;DHT22;9436;52.152;21.032;2022-08-21T14:51:02;27.90;99.90
18613;DHT22;9436;52.152;21.032;2022-08-21T14:53:29;27.90;99.90
18613;DHT22;9436;52.152;21.032;2022-08-21T14:55:56;27.80;99.90
18613;DHT22;9436;52.152;21.032;2022-08-21T14:58:36;27.80;99.90
18613;DHT22;9436;52.152;21.032;2022-08-21T15:01:05;27.70;99.90
18613;DHT22;9436;52.152;21.032;2022-08-21T15:03:33;27.70;99.90
18613;DHT22;9436;52.152;21.032;2022-08-21T15:06:03;27.70;99.90
18613;DHT22;9436;52.152;21.032;2022-08-21T15:08:31;27.70;99.90
18613;DHT22;9436;52.152;21.032;2022-08-21T15:10:59;27.70;99.90
18613;DHT22;9436;52.152;21.032;2022-08-21T15:13:26;27.80;99.90
18613;DHT22;9436;52.152;21.032;2022-08-21T15:15:55;27.80;99.90
18613;DHT22;9436;52.152;21.032;2022-08-21T15:18:24;27.70;99.90
18613;DHT22;9436;52.152;21.032;2022-08-21T15:20:51;27.70;99.90
18613;DHT22;9436;52.152;21.032;2022-08-21T15:23:18;27.80;99.90
18613;DHT22;9436;52.152;21.032;2022-08-21T15:25:47;27.70;99.90
18613;DHT22;9436;52.152;21.032;2022-08-21T15:28:15;27.70;99.90
18613;DHT22;9436;52.152;21.032;2022-08-21T15:30:43;27.70;99.90
18613;DHT22;9436;52.152;21.032;2022-08-21T15:33:12;27.60;99.90
18613;DHT22;9436;52.152;21.032;2022-08-21T15:35:39;27.60;99.90
18613;DHT22;9436;52.152;21.032;2022-08-21T15:38:06;27.60;99.90
18613;DHT22;9436;52.152;21.032;2022-08-21T15:40:34;27.50;99.90
18613;DHT22;9436;52.152;21.032;2022-08-21T15:43:04;27.50;99.90
18613;DHT22;9436;52.152;21.032;2022-08-21T15:45:32;27.50;99.90
18613;DHT22;9436;52.152;21.032;2022-08-21T15:47:59;27.50;99.90
18613;DHT22;9436;52.152;21.032;2022-08-21T15:50:28;27.40;99.90